sensor_id;sensor_type;location;lat;lon;timestamp;P1;durP1;ratioP1;P2;durP2;ratioP2
1753;SDS011;58380;48.312;9.246;2023-02-15T07:15:27;41.92;;;18.42;;
1753;SDS011;58380;48.312;9.246;2023-02-15T07:17:53;39.70;;;16.83;;
1753;SDS011;58380;48.312;9.246;2023-02-15T07:20:19;34.92;;;14.20;;
1753;SDS011;58380;48.312;9.246;2023-02-15T07:22:47;45.70;;;18.77;;
1753;SDS011;58380;48.312;9.246;2023-02-15T07:25:14;55.42;;;25.70;;
1753;SDS011;58380;48.312;9.246;2023-02-15T07:27:40;58.05;;;28.60;;
1753;SDS011;58380;48.312;9.246;2023-02-15T07:30:07;47.85;;;25.13;;
1753;SDS011;58380;48.312;9.246;2023-02-15T07:32:36;37.13;;;15.50;;
1753;SDS011;58380;48.312;9.246;2023-02-15T07:35:22;34.28;;;16.10;;
1753;SDS011;58380;48.312;9.246;2023-02-15T07:37:48;36.47;;;16.58;;
1753;SDS011;58380;48.312;9.246;2023-02-15T07:40:13;52.43;;;23.13;;
1753;SDS011;58380;48.312;9.246;2023-02-15T07:42:38;47.33;;;20.87;;
1753;SDS011;58380;48.312;9.246;2023-02-15T07:45:04;45.45;;;21.55;;
1753;SDS011;58380;48.312;9.246;2023-02-15T07:47:30;38.42;;;19.05;;
1753;SDS011;58380;48.312;9.246;2023-02-15T07:49:55;47.63;;;22.23;;
1753;SDS011;58380;48.312;9.246;2023-02-15T07:52:20;48.60;;;24.47;;
1753;SDS011;58380;48.312;9.246;2023-02-15T07:54:46;44.13;;;21.53;;
1753;SDS011;58380;48.312;9.246;2023-02-15T07:57:11;50.83;;;23.27;;
1753;SDS011;58380;48.312;9.246;2023-02-15T07:59:37;47.20;;;22.23;;
1753;SDS011;58380;48.312;9.246;2023-02-15T08:02:02;44.07;;;20.63;;
1753;SDS011;58380;48.312;9.246;2023-02-15T08:04:27;46.40;;;23.50;;
1753;SDS011;58380;48.312;9.246;2023-02-15T08:06:53;52.93;;;24.37;;
1753;SDS011;58380;48.312;9.246;2023-02-15T08:09:19;47.47;;;23.90;;
1753;SDS011;58380;48.312;9.246;2023-02-15T08:14:13;48.97;;;26.00;;
1753;SDS011;58380;48.312;9.246;2023-02-15T08:16:48;48.45;;;24.33;;
1753;SDS011;58380;48.312;9.246;2023-02-15T08:19:18;50.55;;;23.52;;
1753;SDS011;58380;48.312;9.246;2023-02-15T08:21:49;47.55;;;22.13;;
1753;SDS011;58380;48.312;9.246;2023-02-15T08:24:22;48.00;;;22.33;;
1753;SDS011;58380;48.312;9.246;2023-02-15T08:26:50;51.20;;;21.80;;
1753;SDS011;58380;48.312;9.246;2023-02-15T08:31:44;44.22;;;19.35;;
1753;SDS011;58380;48.312;9.246;2023-02-15T08:36:39;43.15;;;19.33;;
1753;SDS011;58380;48.312;9.246;2023-02-15T08:39:05;42.37;;;20.00;;
1753;SDS011;58380;48.312;9.246;2023-02-15T08:41:32;43.47;;;19.92;;
1753;SDS011;58380;48.312;9.246;2023-02-15T08:44:01;40.83;;;19.40;;
1753;SDS011;58380;48.312;9.246;2023-02-15T08:46:31;36.70;;;16.55;;
1753;SDS011;58380;48.312;9.246;2023-02-15T08:49:00;34.38;;;15.73;;
1753;SDS011;58380;48.312;9.246;2023-02-15T08:51:30;36.60;;;15.85;;
1753;SDS011;58380;48.312;9.246;2023-02-15T08:54:00;34.30;;;15.02;;
1753;SDS011;58380;48.312;9.246;2023-02-15T08:56:35;32.25;;;13.80;;
1753;SDS011;58380;48.312;9.246;2023-02-15T08:59:03;33.25;;;14.63;;
1753;SDS011;58380;48.312;9.246;2023-02-15T09:01:31;29.73;;;12.57;;
1753;SDS011;58380;48.312;9.246;2023-02-15T09:03:59;29.80;;;12.48;;
1753;SDS011;58380;48.312;9.246;2023-02-15T09:06:33;29.42;;;13.40;;
1753;SDS011;58380;48.312;9.246;2023-02-15T09:08:59;26.80;;;12.35;;
1753;SDS011;58380;48.312;9.246;2023-02-15T09:11:26;30.25;;;12.13;;
1753;SDS011;58380;48.312;9.246;2023-02-15T09:16:22;22.58;;;11.02;;
1753;SDS011;58380;48.312;9.246;2023-02-15T09:18:52;23.20;;;10.85;;
1753;SDS011;58380;48.312;9.246;2023-02-15T17:37:47;10.27;;;2.20;;
1753;SDS011;58380;48.312;9.246;2023-02-15T17:40:25;5.00;;;2.28;;
1753;SDS011;58380;48.312;9.246;2023-02-15T17:42:59;8.38;;;2.47;;
1753;SDS011;58380;48.312;9.246;2023-02-15T17:45:26;7.22;;;2.40;;
1753;SDS011;58380;48.312;9.246;2023-02-15T17:47:59;9.48;;;2.58;;
1753;SDS011;58380;48.312;9.246;2023-02-15T17:50:29;5.50;;;2.20;;
1753;SDS011;58380;48.312;9.246;2023-02-15T17:52:56;5.45;;;2.13;;
1753;SDS011;58380;48.312;9.246;2023-02-15T17:55:26;5.82;;;1.95;;
1753;SDS011;58380;48.312;9.246;2023-02-15T17:58:04;9.18;;;2.40;;
1753;SDS011;58380;48.312;9.246;2023-02-15T18:00:36;8.02;;;2.22;;
1753;SDS011;58380;48.312;9.246;2023-02-15T18:03:25;5.90;;;2.35;;
1753;SDS011;58380;48.312;9.246;2023-02-15T18:06:22;4.53;;;2.10;;
1753;SDS011;58380;48.312;9.246;2023-02-15T18:09:08;6.55;;;2.50;;
1753;SDS011;58380;48.312;9.246;2023-02-15T18:11:55;7.15;;;2.30;;
1753;SDS011;58380;48.312;9.246;2023-02-15T18:14:21;8.13;;;2.70;;
1753;SDS011;58380;48.312;9.246;2023-02-15T18:16:46;8.97;;;3.07;;
1753;SDS011;58380;48.312;9.246;2023-02-15T18:19:13;10.43;;;3.00;;
1753;SDS011;58380;48.312;9.246;2023-02-15T18:21:43;7.82;;;3.00;;
1753;SDS011;58380;48.312;9.246;2023-02-15T18:24:15;6.15;;;2.58;;
1753;SDS011;58380;48.312;9.246;2023-02-15T18:26:48;9.00;;;2.60;;
1753;SDS011;58380;48.312;9.246;2023-02-15T18:29:14;6.95;;;2.88;;
1753;SDS011;58380;48.312;9.246;2023-02-15T18:31:40;12.77;;;3.20;;
1753;SDS011;58380;48.312;9.246;2023-02-15T18:36:58;6.05;;;2.97;;
1753;SDS011;58380;48.312;9.246;2023-02-15T18:39:33;8.18;;;3.15;;
1753;SDS011;58380;48.312;9.246;2023-02-15T18:44:52;7.17;;;2.73;;
1753;SDS011;58380;48.312;9.246;2023-02-15T18:47:20;6.18;;;2.45;;
1753;SDS011;58380;48.312;9.246;2023-02-15T18:49:46;5.43;;;2.72;;
1753;SDS011;58380;48.312;9.246;2023-02-15T18:52:19;9.93;;;3.70;;
1753;SDS011;58380;48.312;9.246;2023-02-15T18:54:52;13.70;;;4.63;;
1753;SDS011;58380;48.312;9.246;2023-02-15T18:57:23;9.85;;;3.78;;
1753;SDS011;58380;48.312;9.246;2023-02-15T18:59:50;8.10;;;4.00;;
1753;SDS011;58380;48.312;9.246;2023-02-15T19:02:16;10.37;;;3.33;;
1753;SDS011;58380;48.312;9.246;2023-02-15T19:04:43;9.48;;;3.78;;
1753;SDS011;58380;48.312;9.246;2023-02-15T19:07:13;9.35;;;3.63;;
1753;SDS011;58380;48.312;9.246;2023-02-15T19:09:44;8.93;;;3.63;;
1753;SDS011;58380;48.312;9.246;2023-02-15T19:12:16;8.90;;;3.70;;
1753;SDS011;58380;48.312;9.246;2023-02-15T19:14:43;9.13;;;3.22;;
1753;SDS011;58380;48.312;9.246;2023-02-15T19:17:14;10.93;;;3.35;;
1753;SDS011;58380;48.312;9.246;2023-02-15T19:19:42;8.25;;;3.78;;
1753;SDS011;58380;48.312;9.246;2023-02-15T19:22:15;9.85;;;3.30;;
1753;SDS011;58380;48.312;9.246;2023-02-15T19:24:49;9.57;;;3.97;;
1753;SDS011;58380;48.312;9.246;2023-02-15T19:27:19;9.40;;;3.63;;
1753;SDS011;58380;48.312;9.246;2023-02-15T19:29:51;9.10;;;3.47;;
1753;SDS011;58380;48.312;9.246;2023-02-15T19:32:18;8.35;;;3.50;;
1753;SDS011;58380;48.312;9.246;2023-02-15T19:34:43;8.63;;;3.97;;
1753;SDS011;58380;48.312;9.246;2023-02-15T19:40:18;9.88;;;4.20;;
1753;SDS011;58380;48.312;9.246;2023-02-15T19:42:49;11.23;;;3.97;;
1753;SDS011;58380;48.312;9.246;2023-02-15T19:47:46;10.18;;;3.80;;
1753;SDS011;58380;48.312;9.246;2023-02-15T19:50:15;9.82;;;4.15;;
1753;SDS011;58380;48.312;9.246;2023-02-15T19:52:43;11.57;;;5.07;;
1753;SDS011;58380;48.312;9.246;2023-02-15T19:55:19;15.35;;;6.20;;
1753;SDS011;58380;48.312;9.246;2023-02-15T19:57:51;15.65;;;5.30;;
1753;SDS011;58380;48.312;9.246;2023-02-15T20:00:23;11.25;;;5.13;;
1753;SDS011;58380;48.312;9.246;2023-02-15T20:02:55;15.30;;;6.40;;
1753;SDS011;58380;48.312;9.246;2023-02-15T20:05:23;13.00;;;6.40;;
1753;SDS011;58380;48.312;9.246;2023-02-15T20:07:50;18.95;;;8.05;;
1753;SDS011;58380;48.312;9.246;2023-02-15T20:10:18;19.52;;;7.07;;
1753;SDS011;58380;48.312;9.246;2023-02-15T20:12:50;25.15;;;9.38;;
1753;SDS011;58380;48.312;9.246;2023-02-15T20:15:36;36.43;;;14.37;;
1753;SDS011;58380;48.312;9.246;2023-02-15T20:18:02;40.28;;;13.77;;
1753;SDS011;58380;48.312;9.246;2023-02-15T20:25:52;38.83;;;14.63;;
1753;SDS011;58380;48.312;9.246;2023-02-15T20:28:21;29.20;;;11.25;;
1753;SDS011;58380;48.312;9.246;2023-02-15T20:30:50;20.67;;;9.02;;
1753;SDS011;58380;48.312;9.246;2023-02-15T20:33:17;16.27;;;6.82;;
1753;SDS011;58380;48.312;9.246;2023-02-15T20:35:45;15.55;;;7.30;;
1753;SDS011;58380;48.312;9.246;2023-02-15T20:40:45;14.73;;;7.18;;
1753;SDS011;58380;48.312;9.246;2023-02-15T20:43:30;13.85;;;6.75;;
1753;SDS011;58380;48.312;9.246;2023-02-15T20:45:57;16.92;;;6.28;;
1753;SDS011;58380;48.312;9.246;2023-02-15T20:48:22;15.43;;;7.43;;
1753;SDS011;58380;48.312;9.246;2023-02-15T20:50:48;19.17;;;8.77;;
1753;SDS011;58380;48.312;9.246;2023-02-15T20:53:14;13.57;;;6.65;;
1753;SDS011;58380;48.312;9.246;2023-02-15T20:55:39;14.80;;;7.32;;
1753;SDS011;58380;48.312;9.246;2023-02-15T20:58:09;12.57;;;6.73;;
1753;SDS011;58380;48.312;9.246;2023-02-15T21:00:54;17.23;;;7.57;;
1753;SDS011;58380;48.312;9.246;2023-02-15T21:03:23;18.30;;;8.50;;
1753;SDS011;58380;48.312;9.246;2023-02-15T21:05:54;22.02;;;7.93;;
1753;SDS011;58380;48.312;9.246;2023-02-15T21:08:20;17.57;;;7.37;;
1753;SDS011;58380;48.312;9.246;2023-02-15T21:10:48;19.10;;;6.93;;
1753;SDS011;58380;48.312;9.246;2023-02-15T21:13:24;21.15;;;7.95;;
1753;SDS011;58380;48.312;9.246;2023-02-15T21:15:59;18.17;;;7.43;;
1753;SDS011;58380;48.312;9.246;2023-02-15T21:18:30;17.02;;;6.45;;
1753;SDS011;58380;48.312;9.246;2023-02-15T21:20:59;15.85;;;7.03;;
1753;SDS011;58380;48.312;9.246;2023-02-15T21:24:00;16.33;;;6.43;;
1753;SDS011;58380;48.312;9.246;2023-02-15T21:26:19;28.92;;;12.50;;
1753;SDS011;58380;48.312;9.246;2023-02-15T21:28:47;40.70;;;15.63;;
1753;SDS011;58380;48.312;9.246;2023-02-15T21:31:21;32.55;;;10.60;;
1753;SDS011;58380;48.312;9.246;2023-02-15T21:33:49;36.80;;;14.75;;
1753;SDS011;58380;48.312;9.246;2023-02-15T21:36:15;30.80;;;13.98;;
1753;SDS011;58380;48.312;9.246;2023-02-15T21:38:46;41.80;;;14.40;;
1753;SDS011;58380;48.312;9.246;2023-02-15T21:41:17;38.47;;;16.60;;
1753;SDS011;58380;48.312;9.246;2023-02-15T21:44:14;23.33;;;9.75;;
1753;SDS011;58380;48.312;9.246;2023-02-15T21:47:04;19.53;;;8.97;;
1753;SDS011;58380;48.312;9.246;2023-02-15T21:49:49;19.58;;;8.20;;
1753;SDS011;58380;48.312;9.246;2023-02-15T21:52:15;27.50;;;9.50;;
1753;SDS011;58380;48.312;9.246;2023-02-15T21:54:46;27.25;;;11.48;;
1753;SDS011;58380;48.312;9.246;2023-02-15T21:57:13;26.80;;;11.45;;
1753;SDS011;58380;48.312;9.246;2023-02-15T21:59:40;37.40;;;15.50;;
1753;SDS011;58380;48.312;9.246;2023-02-15T22:02:26;26.73;;;12.13;;
1753;SDS011;58380;48.312;9.246;2023-02-15T22:04:54;30.30;;;12.43;;
1753;SDS011;58380;48.312;9.246;2023-02-15T22:07:22;43.97;;;18.40;;
1753;SDS011;58380;48.312;9.246;2023-02-15T22:09:47;36.75;;;17.13;;
1753;SDS011;58380;48.312;9.246;2023-02-15T22:12:16;37.33;;;16.37;;
1753;SDS011;58380;48.312;9.246;2023-02-15T22:14:44;48.67;;;18.75;;
1753;SDS011;58380;48.312;9.246;2023-02-15T22:17:25;46.55;;;18.25;;
1753;SDS011;58380;48.312;9.246;2023-02-15T22:19:54;46.72;;;19.65;;
1753;SDS011;58380;48.312;9.246;2023-02-15T22:22:21;45.22;;;19.08;;
1753;SDS011;58380;48.312;9.246;2023-02-15T22:24:47;46.88;;;17.98;;
1753;SDS011;58380;48.312;9.246;2023-02-15T22:29:49;51.00;;;22.23;;
1753;SDS011;58380;48.312;9.246;2023-02-15T22:32:23;46.50;;;20.10;;
1753;SDS011;58380;48.312;9.246;2023-02-15T22:34:51;47.35;;;20.83;;
1753;SDS011;58380;48.312;9.246;2023-02-15T22:37:18;49.60;;;20.48;;
1753;SDS011;58380;48.312;9.246;2023-02-15T22:39:44;43.80;;;19.85;;
1753;SDS011;58380;48.312;9.246;2023-02-15T22:42:20;42.73;;;19.37;;
1753;SDS011;58380;48.312;9.246;2023-02-15T22:44:54;43.15;;;17.15;;
1753;SDS011;58380;48.312;9.246;2023-02-15T22:47:22;49.22;;;18.95;;
1753;SDS011;58380;48.312;9.246;2023-02-15T22:49:51;40.38;;;19.15;;
1753;SDS011;58380;48.312;9.246;2023-02-15T22:52:17;45.58;;;20.13;;
1753;SDS011;58380;48.312;9.246;2023-02-15T22:54:43;44.95;;;19.80;;
1753;SDS011;58380;48.312;9.246;2023-02-15T22:57:17;46.75;;;19.00;;
1753;SDS011;58380;48.312;9.246;2023-02-15T22:59:51;23.65;;;10.85;;
